createdAt,value
2022-10-25T00:00:06.512Z,4.40
2022-10-25T00:00:16.563Z,4.70
2022-10-25T00:00:26.528Z,4.30
2022-10-25T00:00:36.524Z,5.30
2022-10-25T00:00:46.535Z,10.50
2022-10-25T00:00:57.406Z,10.70
2022-10-25T00:01:06.548Z,9.90
2022-10-25T00:01:16.650Z,5.20
2022-10-25T00:01:26.629Z,7.00
2022-10-25T00:01:36.610Z,6.70
2022-10-25T00:01:46.623Z,6.60
2022-10-25T00:01:56.657Z,4.20
2022-10-25T00:02:06.650Z,4.30
2022-10-25T00:02:16.789Z,3.80
2022-10-25T00:02:26.575Z,3.80
2022-10-25T00:02:36.543Z,4.10
2022-10-25T00:02:46.616Z,4.40
2022-10-25T00:02:56.504Z,4.50
2022-10-25T00:03:07.418Z,4.00
2022-10-25T00:03:16.510Z,4.10
2022-10-25T00:03:27.400Z,4.10
2022-10-25T00:03:36.526Z,6.50
2022-10-25T00:03:46.500Z,4.40
2022-10-25T00:03:57.404Z,4.20
2022-10-25T00:04:06.607Z,3.50
2022-10-25T00:04:16.600Z,3.90
2022-10-25T00:04:26.503Z,7.90
2022-10-25T00:04:36.510Z,8.10
2022-10-25T00:04:47.407Z,10.30
2022-10-25T00:04:56.495Z,6.40
2022-10-25T00:05:06.545Z,6.30
2022-10-25T00:05:16.503Z,7.20
2022-10-25T00:05:26.488Z,5.20
2022-10-25T00:05:36.510Z,5.50
2022-10-25T00:05:46.491Z,4.60
2022-10-25T00:05:56.509Z,5.10
2022-10-25T00:06:06.503Z,4.80
2022-10-25T00:06:16.493Z,4.60
2022-10-25T00:06:26.508Z,9.10
2022-10-25T00:06:36.500Z,9.10
2022-10-25T00:06:46.493Z,9.20
2022-10-25T00:06:56.504Z,4.20
2022-10-25T00:07:06.503Z,3.80
2022-10-25T00:07:16.579Z,3.90
2022-10-25T00:07:26.494Z,4.30
2022-10-25T00:07:36.523Z,4.50
2022-10-25T00:07:46.873Z,4.50
2022-10-25T00:07:56.495Z,4.00
2022-10-25T00:08:06.481Z,3.70
2022-10-25T00:08:16.572Z,4.70
2022-10-25T00:08:26.483Z,5.00
2022-10-25T00:08:36.552Z,8.20
2022-10-25T00:08:46.474Z,5.20
2022-10-25T00:08:56.479Z,8.20
2022-10-25T00:09:13.660Z,5.20
2022-10-25T00:09:17.403Z,5.10
2022-10-25T00:09:26.466Z,4.60
2022-10-25T00:09:36.469Z,4.50
2022-10-25T00:09:46.482Z,4.20
2022-10-25T00:09:56.487Z,4.10
2022-10-25T00:10:06.469Z,6.20
2022-10-25T00:10:16.493Z,9.70
2022-10-25T00:10:26.477Z,9.70
2022-10-25T00:10:36.489Z,9.90
2022-10-25T00:10:46.501Z,6.40
2022-10-25T00:10:56.493Z,6.00
2022-10-25T00:11:06.475Z,4.80
2022-10-25T00:11:16.499Z,8.90
2022-10-25T00:11:26.463Z,9.10
2022-10-25T00:11:36.476Z,7.10
2022-10-25T00:11:46.488Z,5.20
2022-10-25T00:11:56.500Z,4.90
2022-10-25T00:12:06.511Z,5.00
2022-10-25T00:12:16.490Z,5.20
2022-10-25T00:12:26.502Z,5.60
2022-10-25T00:12:36.507Z,8.70
2022-10-25T00:12:46.477Z,10.70
2022-10-25T00:12:56.460Z,13.30
2022-10-25T00:13:06.460Z,10.10
2022-10-25T00:13:16.475Z,11.00
2022-10-25T00:13:27.038Z,14.40
2022-10-25T00:13:36.453Z,14.20
2022-10-25T00:13:46.463Z,7.80
2022-10-25T00:13:56.454Z,3.90
2022-10-25T00:14:06.455Z,4.10
2022-10-25T00:14:16.491Z,4.50
2022-10-25T00:14:26.473Z,4.30
2022-10-25T00:14:36.460Z,4.10
2022-10-25T00:14:46.462Z,5.20
2022-10-25T00:14:56.459Z,7.40
2022-10-25T00:15:07.425Z,7.20
2022-10-25T00:15:16.448Z,5.30
2022-10-25T00:15:27.499Z,5.20
2022-10-25T00:15:36.445Z,4.90
2022-10-25T00:15:46.514Z,4.90
2022-10-25T00:15:56.457Z,8.20
2022-10-25T00:16:06.459Z,6.50
2022-10-25T00:16:16.445Z,6.60
2022-10-25T00:16:26.436Z,4.80
2022-10-25T00:16:36.472Z,7.30
2022-10-25T00:16:46.475Z,7.20
2022-10-25T00:16:56.467Z,4.90
2022-10-25T00:17:06.449Z,3.70
2022-10-25T00:17:16.444Z,3.40
2022-10-25T00:17:26.469Z,7.90
2022-10-25T00:17:36.511Z,8.00
2022-10-25T00:17:46.824Z,10.70
2022-10-25T00:17:56.447Z,4.40
2022-10-25T00:18:06.434Z,4.30
2022-10-25T00:18:16.481Z,3.90
2022-10-25T00:18:26.470Z,4.20
2022-10-25T00:18:36.499Z,4.50
2022-10-25T00:18:46.435Z,4.60
2022-10-25T00:18:56.452Z,4.60
2022-10-25T00:19:06.430Z,4.50
2022-10-25T00:19:16.443Z,5.20
2022-10-25T00:19:26.435Z,8.90
2022-10-25T00:19:36.433Z,8.60
2022-10-25T00:19:46.451Z,5.60
2022-10-25T00:19:56.438Z,4.20
2022-10-25T00:20:06.430Z,4.80
2022-10-25T00:20:16.425Z,4.80
2022-10-25T00:20:26.441Z,6.00
2022-10-25T00:20:36.477Z,7.90
2022-10-25T00:20:46.437Z,13.10
2022-10-25T00:20:56.482Z,9.20
2022-10-25T00:21:06.508Z,17.40
2022-10-25T00:21:16.439Z,11.90
2022-10-25T00:21:26.429Z,12.30
2022-10-25T00:21:43.545Z,4.30
2022-10-25T00:21:46.581Z,4.00
2022-10-25T00:21:56.418Z,3.90
2022-10-25T00:22:06.423Z,6.20
2022-10-25T00:22:16.418Z,12.30
2022-10-25T00:22:26.418Z,10.70
2022-10-25T00:22:37.436Z,8.10
2022-10-25T00:22:46.699Z,4.10
2022-10-25T00:22:56.425Z,9.40
2022-10-25T00:23:06.418Z,9.50
2022-10-25T00:23:16.423Z,7.50
2022-10-25T00:23:26.417Z,8.70
2022-10-25T00:23:36.420Z,14.10
2022-10-25T00:23:46.506Z,13.80
2022-10-25T00:23:56.417Z,7.20
2022-10-25T00:24:06.425Z,7.50
2022-10-25T00:24:16.446Z,7.50
2022-10-25T00:24:26.421Z,13.10
2022-10-25T00:24:36.428Z,7.50
2022-10-25T00:24:46.406Z,8.20
2022-10-25T00:24:56.425Z,5.20
2022-10-25T00:25:06.600Z,7.30
2022-10-25T00:25:16.406Z,6.80
2022-10-25T00:25:26.451Z,9.10
2022-10-25T00:25:36.586Z,9.10
2022-10-25T00:25:46.418Z,11.20
2022-10-25T00:25:56.913Z,11.30
2022-10-25T00:26:06.429Z,9.00
2022-10-25T00:26:16.419Z,9.90
2022-10-25T00:26:26.453Z,5.00
2022-10-25T00:26:36.404Z,4.70
2022-10-25T00:26:46.414Z,4.10
2022-10-25T00:26:56.409Z,4.30
2022-10-25T00:27:06.494Z,4.90
2022-10-25T00:27:16.423Z,4.70
2022-10-25T00:27:26.414Z,4.20
2022-10-25T00:27:36.398Z,4.50
2022-10-25T00:27:46.418Z,4.70
2022-10-25T00:27:56.446Z,4.90
2022-10-25T00:28:06.395Z,4.10
2022-10-25T00:28:16.413Z,4.10
2022-10-25T00:28:26.391Z,4.30
2022-10-25T00:28:36.391Z,4.50
2022-10-25T00:28:46.938Z,4.20
2022-10-25T00:28:56.570Z,6.70
2022-10-25T00:29:06.397Z,4.70
2022-10-25T00:29:16.594Z,4.40
2022-10-25T00:29:26.468Z,3.50
2022-10-25T00:29:36.400Z,3.90
2022-10-25T00:29:46.502Z,6.20
2022-10-25T00:29:56.389Z,8.20
2022-10-25T00:30:06.468Z,7.70
2022-10-25T00:30:16.404Z,7.80
2022-10-25T00:30:26.379Z,7.70
2022-10-25T00:30:36.410Z,7.90
2022-10-25T00:30:46.396Z,4.10
2022-10-25T00:30:56.923Z,4.40
2022-10-25T00:31:06.394Z,4.10
2022-10-25T00:31:16.394Z,3.90
2022-10-25T00:31:26.412Z,3.80
2022-10-25T00:31:36.379Z,7.60
2022-10-25T00:31:46.563Z,7.90
2022-10-25T00:31:56.377Z,8.00
2022-10-25T00:32:06.412Z,7.30
2022-10-25T00:32:16.966Z,7.00
2022-10-25T00:32:26.370Z,12.40
2022-10-25T00:32:36.379Z,10.60
2022-10-25T00:32:46.713Z,14.80
2022-10-25T00:32:56.384Z,9.00
2022-10-25T00:33:06.378Z,9.30
2022-10-25T00:33:16.393Z,5.10
2022-10-25T00:33:26.386Z,5.20
2022-10-25T00:33:36.380Z,4.30
2022-10-25T00:33:46.385Z,6.90
2022-10-25T00:33:56.380Z,11.80
2022-10-25T00:34:06.423Z,9.40
2022-10-25T00:34:16.471Z,13.90
2022-10-25T00:34:26.375Z,9.10
2022-10-25T00:34:36.369Z,12.40
2022-10-25T00:34:46.389Z,7.20
2022-10-25T00:34:56.369Z,9.30
2022-10-25T00:35:06.395Z,5.90
2022-10-25T00:35:16.364Z,4.50
2022-10-25T00:35:26.912Z,4.90
2022-10-25T00:35:36.368Z,4.80
2022-10-25T00:35:46.377Z,7.30
2022-10-25T00:35:56.372Z,4.50
2022-10-25T00:36:06.373Z,4.80
2022-10-25T00:36:16.441Z,5.00
2022-10-25T00:36:26.363Z,5.30
2022-10-25T00:36:36.919Z,7.00
2022-10-25T00:36:46.360Z,4.80
2022-10-25T00:36:56.370Z,4.10
2022-10-25T00:37:06.374Z,4.00
2022-10-25T00:37:16.415Z,4.60
2022-10-25T00:37:26.355Z,7.50
2022-10-25T00:37:36.433Z,7.40
2022-10-25T00:37:46.929Z,4.80
2022-10-25T00:37:56.353Z,4.80
2022-10-25T00:38:06.363Z,7.30
2022-10-25T00:38:16.920Z,7.30
2022-10-25T00:38:26.912Z,4.40
2022-10-25T00:38:36.365Z,4.30
2022-10-25T00:38:46.422Z,4.80
2022-10-25T00:38:56.366Z,4.90
2022-10-25T00:39:06.361Z,4.90
2022-10-25T00:39:16.385Z,4.40
2022-10-25T00:39:26.350Z,4.50
2022-10-25T00:39:36.356Z,4.50
2022-10-25T00:39:46.384Z,4.00
2022-10-25T00:39:56.923Z,4.60
2022-10-25T00:40:06.362Z,5.70
2022-10-25T00:40:16.358Z,5.80
2022-10-25T00:40:26.370Z,4.60
2022-10-25T00:40:36.349Z,4.50
2022-10-25T00:40:46.336Z,4.70
2022-10-25T00:40:56.341Z,7.20
2022-10-25T00:41:06.340Z,7.20
2022-10-25T00:41:16.336Z,7.10
2022-10-25T00:41:26.341Z,4.60
2022-10-25T00:41:39.128Z,4.60
2022-10-25T00:41:46.340Z,4.60
2022-10-25T00:41:56.339Z,4.80
2022-10-25T00:42:06.342Z,4.80
2022-10-25T00:42:16.338Z,4.50
2022-10-25T00:42:26.349Z,4.30
2022-10-25T00:42:36.925Z,5.80
2022-10-25T00:42:46.802Z,8.10
2022-10-25T00:42:56.335Z,10.40
2022-10-25T00:43:06.352Z,6.60
2022-10-25T00:43:16.351Z,4.40
2022-10-25T00:43:26.340Z,5.50
2022-10-25T00:43:36.343Z,8.50
2022-10-25T00:43:46.345Z,8.80
2022-10-25T00:43:56.343Z,7.50
2022-10-25T00:44:06.327Z,9.80
2022-10-25T00:44:16.327Z,9.60
2022-10-25T00:44:26.392Z,9.10
2022-10-25T00:44:36.986Z,6.20
2022-10-25T00:44:46.331Z,8.80
2022-10-25T00:44:56.328Z,11.40
2022-10-25T00:45:06.334Z,12.80
2022-10-25T00:45:16.329Z,10.30
2022-10-25T00:45:26.325Z,8.00
2022-10-25T00:45:36.332Z,6.50
2022-10-25T00:45:46.342Z,6.50
2022-10-25T00:45:56.375Z,4.20
2022-10-25T00:46:06.328Z,3.80
2022-10-25T00:46:16.327Z,4.00
2022-10-25T00:46:26.336Z,4.30
2022-10-25T00:46:36.330Z,4.60
2022-10-25T00:46:46.394Z,4.50
2022-10-25T00:46:56.311Z,4.40
2022-10-25T00:47:06.319Z,5.30
2022-10-25T00:47:16.336Z,5.30
2022-10-25T00:47:26.312Z,5.60
2022-10-25T00:47:36.312Z,4.40
2022-10-25T00:47:46.616Z,4.80
2022-10-25T00:47:56.340Z,4.90
2022-10-25T00:48:06.315Z,4.80
2022-10-25T00:48:16.321Z,4.50
2022-10-25T00:48:26.314Z,3.90
2022-10-25T00:48:36.310Z,4.80
2022-10-25T00:48:46.349Z,6.80
2022-10-25T00:48:56.312Z,9.00
2022-10-25T00:49:06.317Z,6.20
2022-10-25T00:49:16.347Z,4.60
2022-10-25T00:49:26.322Z,4.40
2022-10-25T00:49:36.351Z,4.40
2022-10-25T00:49:46.353Z,4.80
2022-10-25T00:49:56.299Z,4.50
2022-10-25T00:50:06.316Z,6.80
2022-10-25T00:50:16.297Z,5.10
2022-10-25T00:50:26.301Z,7.30
2022-10-25T00:50:36.309Z,4.80
2022-10-25T00:50:46.325Z,7.80
2022-10-25T00:50:56.315Z,5.50
2022-10-25T00:51:06.316Z,5.20
2022-10-25T00:51:16.302Z,4.20
2022-10-25T00:51:26.325Z,4.30
2022-10-25T00:51:36.309Z,4.50
2022-10-25T00:51:46.303Z,5.00
2022-10-25T00:51:56.299Z,7.50
2022-10-25T00:52:06.307Z,7.40
2022-10-25T00:52:16.296Z,4.90
2022-10-25T00:52:26.294Z,3.80
2022-10-25T00:52:36.307Z,4.30
2022-10-25T00:52:46.311Z,4.50
2022-10-25T00:52:56.315Z,10.60
2022-10-25T00:53:06.310Z,8.10
2022-10-25T00:53:16.294Z,7.90
2022-10-25T00:53:26.298Z,4.10
2022-10-25T00:53:36.286Z,6.80
2022-10-25T00:53:46.287Z,10.00
2022-10-25T00:53:56.317Z,10.00
2022-10-25T00:54:06.288Z,8.70
2022-10-25T00:54:16.334Z,7.90
2022-10-25T00:54:26.287Z,11.10
2022-10-25T00:54:36.289Z,7.70
2022-10-25T00:54:46.361Z,5.10
2022-10-25T00:54:56.298Z,3.90
2022-10-25T00:55:06.362Z,4.10
2022-10-25T00:55:16.293Z,4.20
2022-10-25T00:55:26.285Z,4.30
2022-10-25T00:55:36.346Z,8.80
2022-10-25T00:55:46.300Z,8.50
2022-10-25T00:55:56.284Z,8.20
2022-10-25T00:56:06.293Z,6.10
2022-10-25T00:56:16.282Z,6.10
2022-10-25T00:56:26.275Z,8.70
2022-10-25T00:56:36.272Z,6.10
2022-10-25T00:56:46.286Z,10.10
2022-10-25T00:56:56.269Z,10.10
2022-10-25T00:57:06.310Z,12.20
2022-10-25T00:57:16.268Z,6.10
2022-10-25T00:57:26.275Z,8.60
2022-10-25T00:57:36.284Z,8.80
2022-10-25T00:57:46.597Z,10.90
2022-10-25T00:57:56.275Z,6.00
2022-10-25T00:58:06.926Z,4.20
2022-10-25T00:58:16.274Z,4.20
2022-10-25T00:58:26.290Z,9.40
2022-10-25T00:58:36.263Z,9.60
2022-10-25T00:58:46.282Z,9.50
2022-10-25T00:58:56.260Z,4.40
2022-10-25T00:59:06.932Z,4.30
2022-10-25T00:59:16.351Z,4.40
2022-10-25T00:59:26.262Z,3.20
2022-10-25T00:59:36.294Z,3.40
2022-10-25T00:59:46.261Z,4.30
2022-10-25T00:59:56.368Z,6.40
2022-10-25T01:00:06.264Z,6.90
2022-10-25T01:00:16.279Z,5.00
2022-10-25T01:00:26.270Z,4.80
2022-10-25T01:00:36.262Z,7.70
2022-10-25T01:00:46.264Z,12.00
2022-10-25T01:00:56.263Z,10.00
2022-10-25T01:01:06.291Z,7.00
2022-10-25T01:01:17.074Z,7.60
2022-10-25T01:01:26.396Z,9.80
2022-10-25T01:01:36.404Z,9.90
2022-10-25T01:01:46.408Z,6.90
2022-10-25T01:01:56.459Z,4.20
2022-10-25T01:02:06.415Z,4.20
2022-10-25T01:02:16.392Z,3.90
2022-10-25T01:02:26.326Z,4.30
2022-10-25T01:02:36.305Z,5.80
2022-10-25T01:02:46.406Z,7.70
2022-10-25T01:03:06.248Z,10.00
2022-10-25T01:03:16.282Z,10.40
2022-10-25T01:03:26.248Z,10.60
2022-10-25T01:03:36.249Z,7.20
2022-10-25T01:03:46.257Z,4.90
2022-10-25T01:03:56.252Z,3.80
2022-10-25T01:04:06.250Z,6.00
2022-10-25T01:04:16.323Z,5.80
2022-10-25T01:04:26.250Z,4.00
2022-10-25T01:04:36.248Z,3.70
2022-10-25T01:04:46.237Z,4.90
2022-10-25T01:04:56.262Z,5.00
2022-10-25T01:05:06.287Z,5.30
2022-10-25T01:05:16.235Z,4.50
2022-10-25T01:05:26.279Z,4.40
2022-10-25T01:05:36.236Z,4.40
2022-10-25T01:05:46.250Z,3.80
2022-10-25T01:05:56.233Z,3.70
2022-10-25T01:06:06.239Z,3.90
2022-10-25T01:06:16.234Z,4.10
2022-10-25T01:06:26.236Z,5.30
2022-10-25T01:06:36.286Z,8.10
2022-10-25T01:06:46.239Z,10.10
2022-10-25T01:06:56.233Z,9.60
2022-10-25T01:07:06.246Z,6.70
2022-10-25T01:07:16.236Z,4.60
2022-10-25T01:07:27.030Z,4.50
2022-10-25T01:07:36.223Z,7.20
2022-10-25T01:07:46.555Z,7.10
2022-10-25T01:07:56.252Z,4.90
2022-10-25T01:08:06.225Z,4.30
2022-10-25T01:08:16.236Z,6.40
2022-10-25T01:08:26.241Z,11.80
2022-10-25T01:08:36.227Z,9.90
2022-10-25T01:08:46.245Z,7.70
2022-10-25T01:08:59.007Z,4.80
2022-10-25T01:09:06.220Z,4.70
2022-10-25T01:09:16.219Z,4.80
2022-10-25T01:09:26.222Z,4.10
2022-10-25T01:09:36.263Z,7.90
2022-10-25T01:09:46.219Z,10.40
2022-10-25T01:09:56.228Z,12.30
2022-10-25T01:10:06.222Z,11.40
2022-10-25T01:10:16.257Z,13.40
2022-10-25T01:10:26.229Z,11.40
2022-10-25T01:10:36.220Z,6.60
2022-10-25T01:10:46.227Z,3.60
2022-10-25T01:10:56.211Z,3.80
2022-10-25T01:11:06.322Z,5.00
2022-10-25T01:11:26.234Z,4.90
2022-10-25T01:11:36.225Z,3.70
2022-10-25T01:11:46.377Z,6.30
2022-10-25T01:11:56.211Z,9.20
2022-10-25T01:12:06.212Z,9.10
2022-10-25T01:12:16.218Z,4.80
2022-10-25T01:12:26.207Z,3.60
2022-10-25T01:12:36.249Z,3.70
2022-10-25T01:12:48.555Z,4.20
2022-10-25T01:12:56.717Z,4.20
2022-10-25T01:13:06.208Z,4.40
2022-10-25T01:13:16.234Z,4.60
2022-10-25T01:13:26.214Z,7.20
2022-10-25T01:13:36.214Z,6.80
2022-10-25T01:13:46.270Z,9.10
2022-10-25T01:13:56.208Z,4.10
2022-10-25T01:14:06.216Z,10.30
2022-10-25T01:14:16.220Z,7.90
2022-10-25T01:14:26.205Z,8.20
2022-10-25T01:14:36.209Z,8.30
2022-10-25T01:14:46.254Z,8.20
2022-10-25T01:14:56.211Z,7.90
2022-10-25T01:15:06.210Z,12.70
2022-10-25T01:15:16.191Z,12.70
2022-10-25T01:15:26.295Z,16.00
2022-10-25T01:15:36.199Z,5.30
2022-10-25T01:15:46.218Z,7.20
2022-10-25T01:15:56.194Z,6.70
2022-10-25T01:16:06.221Z,6.60
2022-10-25T01:16:16.926Z,11.40
2022-10-25T01:16:26.202Z,14.60
2022-10-25T01:16:36.189Z,14.40
2022-10-25T01:16:46.194Z,7.40
2022-10-25T01:16:56.329Z,5.50
2022-10-25T01:17:06.196Z,12.30
2022-10-25T01:17:16.194Z,12.30
2022-10-25T01:17:26.213Z,8.60
2022-10-25T01:17:36.200Z,3.80
2022-10-25T01:17:46.370Z,3.80
2022-10-25T01:17:56.235Z,5.60
2022-10-25T01:18:06.189Z,3.70
2022-10-25T01:18:16.202Z,8.30
2022-10-25T01:18:26.182Z,8.90
2022-10-25T01:18:36.188Z,13.90
2022-10-25T01:18:46.189Z,9.40
2022-10-25T01:18:56.177Z,7.00
2022-10-25T01:19:06.186Z,3.50
2022-10-25T01:19:16.228Z,3.50
2022-10-25T01:19:26.232Z,3.40
2022-10-25T01:19:36.198Z,3.50
2022-10-25T01:19:46.228Z,3.80
2022-10-25T01:19:56.935Z,4.20
2022-10-25T01:20:06.177Z,7.40
2022-10-25T01:20:16.387Z,7.60
2022-10-25T01:20:26.222Z,9.50
2022-10-25T01:20:36.295Z,6.30
2022-10-25T01:20:46.196Z,10.50
2022-10-25T01:20:56.174Z,8.10
2022-10-25T01:21:06.189Z,10.20
2022-10-25T01:21:16.193Z,15.70
2022-10-25T01:21:26.177Z,15.70
2022-10-25T01:21:36.196Z,17.40
2022-10-25T01:21:46.220Z,10.30
2022-10-25T01:21:56.174Z,11.30
2022-10-25T01:22:06.198Z,11.30
2022-10-25T01:22:16.194Z,8.40
2022-10-25T01:22:26.175Z,5.60
2022-10-25T01:22:36.198Z,7.60
2022-10-25T01:22:46.373Z,7.70
2022-10-25T01:22:56.276Z,7.50
2022-10-25T01:23:06.176Z,3.40
2022-10-25T01:23:16.178Z,3.10
2022-10-25T01:23:26.181Z,3.00
2022-10-25T01:23:36.173Z,2.90
2022-10-25T01:23:46.217Z,4.20
2022-10-25T01:23:56.182Z,10.10
2022-10-25T01:24:06.191Z,12.70
2022-10-25T01:24:16.167Z,10.40
2022-10-25T01:24:26.176Z,6.80
2022-10-25T01:24:36.162Z,7.60
2022-10-25T01:24:46.161Z,7.90
2022-10-25T01:24:56.253Z,5.70
2022-10-25T01:25:06.159Z,3.00
2022-10-25T01:25:16.227Z,2.90
2022-10-25T01:25:26.155Z,2.70
2022-10-25T01:25:36.166Z,5.00
2022-10-25T01:25:46.214Z,4.80
2022-10-25T01:25:56.157Z,5.00
2022-10-25T01:26:06.183Z,3.90
2022-10-25T01:26:16.269Z,6.50
2022-10-25T01:26:26.172Z,11.80
2022-10-25T01:26:36.165Z,12.70
2022-10-25T01:26:46.154Z,10.30
2022-10-25T01:26:56.296Z,9.60
2022-10-25T01:27:06.142Z,7.00
2022-10-25T01:27:16.156Z,6.80
2022-10-25T01:27:26.147Z,3.70
2022-10-25T01:27:36.931Z,3.50
2022-10-25T01:27:46.196Z,7.00
2022-10-25T01:28:06.151Z,8.80
2022-10-25T01:28:16.186Z,6.60
2022-10-25T01:28:26.136Z,9.00
2022-10-25T01:28:36.138Z,7.00
2022-10-25T01:28:46.154Z,4.30
2022-10-25T01:28:56.138Z,3.80
2022-10-25T01:29:06.139Z,3.90
2022-10-25T01:29:16.145Z,3.70
2022-10-25T01:29:26.946Z,3.20
2022-10-25T01:29:36.154Z,2.90
2022-10-25T01:29:46.162Z,3.20
2022-10-25T01:29:56.139Z,6.20
2022-10-25T01:30:06.147Z,8.30
2022-10-25T01:30:16.150Z,8.20
2022-10-25T01:30:26.935Z,3.90
2022-10-25T01:30:36.152Z,3.60
2022-10-25T01:30:46.166Z,4.10
2022-10-25T01:30:56.214Z,7.40
2022-10-25T01:31:06.131Z,7.20
2022-10-25T01:31:16.156Z,7.70
2022-10-25T01:31:26.122Z,4.30
2022-10-25T01:31:36.140Z,4.60
2022-10-25T01:31:46.131Z,2.90
2022-10-25T01:31:56.128Z,4.90
2022-10-25T01:32:06.130Z,10.40
2022-10-25T01:32:16.130Z,10.70
2022-10-25T01:32:26.146Z,7.50
2022-10-25T01:32:36.262Z,2.80
2022-10-25T01:32:46.499Z,3.20
2022-10-25T01:32:56.146Z,3.80
2022-10-25T01:33:06.147Z,4.60
2022-10-25T01:33:16.126Z,10.80
2022-10-25T01:33:26.113Z,13.60
2022-10-25T01:33:36.142Z,10.90
2022-10-25T01:33:46.138Z,6.90
2022-10-25T01:33:56.213Z,4.00
2022-10-25T01:34:06.146Z,6.70
2022-10-25T01:34:16.116Z,10.60
2022-10-25T01:34:26.136Z,11.00
2022-10-25T01:34:36.939Z,8.40
2022-10-25T01:34:46.112Z,3.40
2022-10-25T01:34:56.114Z,3.30
2022-10-25T01:35:06.111Z,3.50
2022-10-25T01:35:16.123Z,3.20
2022-10-25T01:35:26.128Z,4.10
2022-10-25T01:35:36.109Z,6.70
2022-10-25T01:35:46.110Z,9.30
2022-10-25T01:35:56.130Z,8.80
2022-10-25T01:36:06.523Z,9.50
2022-10-25T01:36:16.230Z,12.50
2022-10-25T01:36:26.104Z,16.40
2022-10-25T01:36:36.938Z,15.10
2022-10-25T01:36:46.107Z,9.70
2022-10-25T01:36:56.134Z,6.10
2022-10-25T01:37:06.118Z,4.20
2022-10-25T01:37:16.119Z,4.10
2022-10-25T01:37:26.128Z,2.80
2022-10-25T01:37:36.113Z,3.00
2022-10-25T01:37:46.454Z,3.50
2022-10-25T01:37:56.143Z,7.30
2022-10-25T01:38:06.102Z,15.80
2022-10-25T01:38:16.108Z,15.60
2022-10-25T01:38:26.099Z,10.50
2022-10-25T01:38:36.127Z,4.20
2022-10-25T01:38:46.184Z,4.40
2022-10-25T01:38:56.097Z,3.90
2022-10-25T01:39:06.194Z,4.90
2022-10-25T01:39:16.107Z,4.80
2022-10-25T01:39:26.101Z,5.00
2022-10-25T01:39:36.120Z,3.90
2022-10-25T01:39:46.117Z,11.20
2022-10-25T01:39:56.107Z,13.70
2022-10-25T01:40:06.086Z,11.80
2022-10-25T01:40:16.112Z,4.60
2022-10-25T01:40:26.086Z,4.80
2022-10-25T01:40:36.090Z,4.50
2022-10-25T01:40:46.954Z,7.40
2022-10-25T01:40:56.087Z,8.10
2022-10-25T01:41:06.945Z,8.40
2022-10-25T01:41:16.363Z,12.70
2022-10-25T01:41:26.095Z,9.50
2022-10-25T01:41:36.096Z,11.80
2022-10-25T01:41:46.081Z,7.20
2022-10-25T01:41:56.092Z,7.30
2022-10-25T01:42:06.095Z,4.90
2022-10-25T01:42:16.121Z,3.60
2022-10-25T01:42:26.102Z,4.40
2022-10-25T01:42:36.101Z,4.60
2022-10-25T01:42:46.086Z,4.70
2022-10-25T01:42:56.947Z,3.40
2022-10-25T01:43:06.098Z,3.80
2022-10-25T01:43:16.144Z,4.10
2022-10-25T01:43:26.076Z,4.40
2022-10-25T01:43:36.084Z,4.30
2022-10-25T01:43:46.938Z,4.60
2022-10-25T01:43:56.950Z,4.20
2022-10-25T01:44:06.088Z,4.20
2022-10-25T01:44:16.077Z,3.20
2022-10-25T01:44:26.252Z,3.90
2022-10-25T01:44:46.099Z,7.10
2022-10-25T01:44:56.960Z,8.10
2022-10-25T01:45:06.068Z,10.00
2022-10-25T01:45:16.942Z,6.70
2022-10-25T01:45:26.081Z,6.70
2022-10-25T01:45:36.076Z,4.70
2022-10-25T01:45:46.102Z,4.40
2022-10-25T01:45:56.067Z,3.10
2022-10-25T01:46:06.074Z,2.90
2022-10-25T01:46:16.068Z,3.20
2022-10-25T01:46:26.134Z,2.70
2022-10-25T01:46:36.067Z,2.70
2022-10-25T01:46:46.061Z,3.70
2022-10-25T01:46:56.066Z,3.70
2022-10-25T01:47:06.137Z,7.00
2022-10-25T01:47:16.065Z,5.10
2022-10-25T01:47:26.063Z,8.30
2022-10-25T01:47:36.063Z,5.10
2022-10-25T01:47:46.378Z,5.20
2022-10-25T01:47:56.075Z,3.00
2022-10-25T01:48:06.059Z,3.10
2022-10-25T01:48:16.073Z,3.20
2022-10-25T01:48:26.053Z,3.30
2022-10-25T01:48:36.087Z,7.40
2022-10-25T01:48:46.072Z,7.00
2022-10-25T01:48:56.056Z,6.80
2022-10-25T01:49:06.091Z,5.20
2022-10-25T01:49:16.154Z,5.30
2022-10-25T01:49:26.066Z,7.70
2022-10-25T01:49:36.060Z,4.00
2022-10-25T01:49:46.050Z,3.90
2022-10-25T01:49:56.054Z,3.00
2022-10-25T01:50:06.050Z,3.50
2022-10-25T01:50:16.047Z,4.50
2022-10-25T01:50:26.061Z,4.40
2022-10-25T01:50:36.061Z,4.40
2022-10-25T01:50:46.045Z,2.70
2022-10-25T01:50:56.081Z,3.20
2022-10-25T01:51:06.058Z,2.80
2022-10-25T01:51:16.145Z,8.30
2022-10-25T01:51:26.076Z,8.20
2022-10-25T01:51:36.095Z,8.00
2022-10-25T01:51:46.041Z,2.60
2022-10-25T01:51:56.037Z,6.10
2022-10-25T01:52:06.057Z,6.20
2022-10-25T01:52:16.043Z,5.80
2022-10-25T01:52:26.042Z,8.00
2022-10-25T01:52:36.043Z,10.70
2022-10-25T01:52:46.129Z,11.10
2022-10-25T01:52:56.042Z,4.70
2022-10-25T01:53:06.041Z,3.10
2022-10-25T01:53:16.963Z,3.80
2022-10-25T01:53:26.120Z,3.80
2022-10-25T01:53:36.034Z,3.90
2022-10-25T01:53:46.039Z,3.50
2022-10-25T01:53:56.051Z,4.70
2022-10-25T01:54:06.084Z,4.40
2022-10-25T01:54:16.048Z,4.20
2022-10-25T01:54:26.040Z,3.40
2022-10-25T01:54:36.031Z,8.90
2022-10-25T01:54:46.042Z,8.60
2022-10-25T01:54:56.037Z,10.80
2022-10-25T01:55:06.138Z,4.10
2022-10-25T01:55:16.055Z,4.10
2022-10-25T01:55:26.122Z,2.80
2022-10-25T01:55:36.029Z,7.10
2022-10-25T01:55:46.021Z,7.00
2022-10-25T01:55:56.022Z,7.00
2022-10-25T01:56:06.045Z,9.50
2022-10-25T01:56:16.023Z,9.40
2022-10-25T01:56:26.014Z,16.10
2022-10-25T01:56:36.038Z,8.50
2022-10-25T01:56:46.071Z,12.20
2022-10-25T01:56:56.055Z,7.50
2022-10-25T01:57:06.014Z,7.30
2022-10-25T01:57:16.025Z,8.90
2022-10-25T01:57:26.044Z,6.90
2022-10-25T01:57:36.157Z,9.00
2022-10-25T01:57:46.218Z,4.10
2022-10-25T01:57:56.016Z,4.40
2022-10-25T01:58:06.008Z,5.10
2022-10-25T01:58:16.964Z,4.70
2022-10-25T01:58:26.016Z,15.50
2022-10-25T01:58:36.064Z,16.10
2022-10-25T01:58:46.035Z,16.30
2022-10-25T01:58:56.021Z,5.30
2022-10-25T01:59:06.046Z,4.10
2022-10-25T01:59:16.940Z,4.00
2022-10-25T01:59:26.085Z,10.20
2022-10-25T01:59:36.944Z,8.10
2022-10-25T01:59:46.002Z,9.90
2022-10-25T01:59:56.011Z,3.60
2022-10-25T02:00:06.023Z,5.30
2022-10-25T02:00:16.003Z,3.20
2022-10-25T02:00:26.018Z,3.30
2022-10-25T02:00:36.156Z,4.30
2022-10-25T02:00:46.114Z,4.60
2022-10-25T02:00:56.099Z,4.40
2022-10-25T02:01:06.174Z,3.20
2022-10-25T02:01:17.336Z,3.40
2022-10-25T02:01:26.230Z,3.20
2022-10-25T02:01:37.253Z,3.20
2022-10-25T02:01:46.005Z,2.90
2022-10-25T02:01:56.040Z,2.90
2022-10-25T02:02:05.995Z,3.20
2022-10-25T02:02:16.009Z,3.10
2022-10-25T02:02:25.995Z,5.30
2022-10-25T02:02:36.001Z,10.00
2022-10-25T02:02:46.257Z,10.20
2022-10-25T02:02:56.955Z,7.00
2022-10-25T02:03:05.985Z,4.80
2022-10-25T02:03:16.030Z,4.60
2022-10-25T02:03:26.006Z,4.50
2022-10-25T02:03:36.021Z,7.50
2022-10-25T02:03:46.123Z,7.50
2022-10-25T02:03:56.005Z,15.70
2022-10-25T02:04:05.988Z,10.00
2022-10-25T02:04:16.000Z,9.80
2022-10-25T02:04:26.020Z,5.10
2022-10-25T02:04:35.994Z,7.00
2022-10-25T02:04:46.011Z,7.10
2022-10-25T02:04:56.012Z,3.60
2022-10-25T02:05:05.995Z,2.30
2022-10-25T02:05:15.986Z,4.10
2022-10-25T02:05:25.992Z,4.20
2022-10-25T02:05:36.036Z,4.40
2022-10-25T02:05:47.008Z,2.60
2022-10-25T02:05:56.114Z,3.00
2022-10-25T02:06:05.999Z,3.10
2022-10-25T02:06:15.985Z,4.80
2022-10-25T02:06:25.974Z,4.60
2022-10-25T02:06:35.995Z,7.10
2022-10-25T02:06:45.978Z,4.50
2022-10-25T02:06:56.075Z,6.50
2022-10-25T02:07:06.028Z,3.80
2022-10-25T02:07:16.001Z,6.20
2022-10-25T02:07:25.978Z,4.50
2022-10-25T02:07:35.969Z,4.50
2022-10-25T02:07:46.005Z,4.30
2022-10-25T02:07:57.172Z,7.20
2022-10-25T02:08:05.999Z,7.40
2022-10-25T02:08:15.974Z,5.20
2022-10-25T02:08:25.981Z,2.80
2022-10-25T02:08:35.969Z,2.90
2022-10-25T02:08:45.970Z,3.00
2022-10-25T02:08:55.973Z,3.10
2022-10-25T02:09:05.972Z,6.30
2022-10-25T02:09:15.962Z,6.30
2022-10-25T02:09:25.995Z,6.00
2022-10-25T02:09:35.978Z,4.10
2022-10-25T02:09:45.964Z,4.00
2022-10-25T02:09:56.182Z,7.50
2022-10-25T02:10:15.970Z,10.00
2022-10-25T02:10:25.978Z,6.50
2022-10-25T02:10:35.967Z,3.00
2022-10-25T02:10:45.969Z,4.30
2022-10-25T02:10:55.974Z,7.40
2022-10-25T02:11:05.985Z,7.70
2022-10-25T02:11:15.963Z,7.00
2022-10-25T02:11:25.990Z,7.30
2022-10-25T02:11:35.976Z,10.60
2022-10-25T02:11:45.985Z,8.70
2022-10-25T02:11:55.957Z,5.40
2022-10-25T02:12:06.019Z,4.90
2022-10-25T02:12:16.008Z,5.10
2022-10-25T02:12:25.963Z,9.50
2022-10-25T02:12:35.946Z,6.30
2022-10-25T02:12:46.209Z,14.40
2022-10-25T02:12:55.965Z,18.30
2022-10-25T02:13:05.947Z,18.50
2022-10-25T02:13:15.955Z,10.20